createdAt,value
2023-03-28T04:22:54.257Z,100.00
2023-03-28T04:36:17.548Z,100.00
2023-03-28T04:37:45.870Z,100.00
2023-03-28T04:39:47.907Z,97.21
2023-03-28T04:44:56.099Z,80.25
2023-03-28T04:46:17.218Z,77.84
2023-03-28T04:47:34.935Z,75.63
2023-03-28T04:50:16.664Z,66.26
2023-03-28T04:51:31.861Z,63.15
2023-03-28T04:54:29.964Z,65.67
2023-03-28T04:55:56.755Z,67.89
2023-03-28T04:57:30.963Z,65.80
2023-03-28T04:59:01.483Z,65.50
2023-03-28T05:00:54.007Z,63.79
2023-03-28T05:02:30.946Z,64.59
2023-03-28T05:03:41.402Z,65.40
2023-03-28T05:04:58.688Z,62.81
2023-03-28T05:06:01.781Z,63.40
2023-03-28T05:35:58.503Z,53.96
2023-03-28T05:37:01.628Z,55.82
2023-03-28T05:38:18.608Z,57.72
2023-03-28T09:56:31.183Z,55.98
2023-03-28T09:58:39.906Z,56.08
2023-03-28T10:00:13.846Z,57.72
2023-03-28T10:02:15.139Z,61.00
2023-03-28T10:06:30.477Z,58.87
2023-03-28T10:20:26.065Z,61.44
2023-03-28T10:26:14.690Z,60.68
2023-03-28T10:28:00.790Z,60.93
2023-03-28T10:29:40.832Z,61.76
2023-03-28T10:31:10.277Z,61.61
2023-03-28T10:32:36.965Z,60.69
2023-03-28T10:34:13.143Z,58.40
2023-03-28T10:35:37.449Z,56.89
2023-03-28T10:36:57.453Z,55.13
2023-03-28T10:38:20.841Z,56.39
2023-03-28T10:39:58.197Z,56.72
2023-03-28T10:41:31.281Z,56.83
2023-03-28T10:43:17.973Z,56.83
2023-03-28T10:46:40.610Z,56.92
2023-03-28T10:48:36.573Z,57.29
2023-03-28T10:50:00.790Z,57.86
2023-03-28T10:51:28.819Z,58.01
2023-03-28T10:52:54.934Z,58.95
2023-03-28T10:54:49.295Z,57.95
2023-03-28T10:56:18.725Z,57.10
2023-03-28T10:57:52.288Z,57.33
2023-03-28T11:19:50.312Z,60.63
2023-03-28T11:28:32.592Z,63.25
2023-03-28T11:31:02.555Z,64.09
2023-03-28T11:32:58.274Z,64.60
2023-03-28T11:35:09.395Z,65.72
2023-03-28T11:43:28.194Z,70.74
2023-03-28T11:49:44.180Z,75.31
2023-03-28T11:51:52.756Z,73.27
2023-03-28T11:53:38.191Z,73.22
2023-03-28T11:55:03.035Z,73.05
2023-03-28T11:56:43.734Z,73.53
2023-03-28T11:58:37.957Z,74.05
2023-03-28T12:00:05.954Z,71.66
2023-03-28T12:01:32.965Z,71.36
2023-03-28T12:03:03.245Z,71.69
2023-03-28T12:04:29.396Z,71.92
2023-03-28T12:06:02.578Z,71.64
2023-03-28T12:07:32.830Z,72.31
2023-03-28T12:09:11.180Z,73.64
2023-03-28T12:10:51.253Z,73.87
2023-03-28T12:12:29.803Z,74.19
2023-03-28T12:13:55.454Z,74.90
2023-03-28T12:15:16.783Z,75.83
2023-03-28T12:16:42.953Z,76.09
2023-03-28T12:18:49.031Z,76.77
2023-03-28T12:20:16.111Z,78.59
2023-03-28T12:21:34.020Z,79.04
2023-03-28T12:22:58.071Z,78.94
2023-03-28T12:24:33.591Z,78.92
2023-03-28T12:26:23.853Z,78.85
2023-03-28T12:27:46.399Z,78.99
2023-03-28T12:29:04.980Z,78.67
2023-03-28T12:30:23.864Z,79.58
2023-03-28T12:32:16.650Z,80.38
2023-03-28T12:33:41.232Z,79.44
2023-03-28T12:35:22.857Z,78.86
2023-03-28T12:38:46.482Z,79.83
2023-03-28T12:40:21.547Z,80.15
2023-03-28T12:41:40.151Z,80.18
2023-03-28T12:42:55.349Z,79.71
2023-03-28T12:44:46.587Z,78.49
2023-03-28T12:47:42.460Z,78.45
2023-03-28T12:49:24.179Z,79.16
2023-03-28T12:51:01.401Z,78.61
2023-03-28T12:52:17.034Z,78.57
2023-03-28T12:53:30.542Z,78.62
2023-03-28T12:55:03.836Z,79.42
2023-03-28T12:56:16.400Z,79.28
2023-03-28T12:57:46.103Z,80.31
2023-03-28T12:59:50.155Z,81.12
2023-03-28T13:01:30.601Z,80.99
2023-03-28T13:03:11.130Z,80.38
2023-03-28T13:04:44.348Z,81.01
2023-03-28T13:06:22.749Z,80.50
2023-03-28T13:07:58.887Z,80.15
2023-03-28T13:09:39.278Z,80.27
2023-03-28T13:11:08.230Z,80.22
2023-03-28T13:12:31.352Z,78.53
2023-03-28T13:13:46.560Z,75.98
2023-03-28T13:15:20.021Z,77.01
2023-03-28T13:16:53.128Z,76.03
2023-03-28T13:18:24.197Z,75.80
2023-03-28T13:19:53.902Z,75.88
2023-03-28T13:21:09.838Z,75.33
2023-03-28T13:22:56.560Z,74.64
2023-03-28T13:24:01.672Z,75.53
2023-03-28T13:25:50.285Z,75.48
2023-03-28T13:28:06.217Z,74.87
2023-03-28T13:31:34.342Z,70.79
2023-03-28T13:33:42.222Z,70.59
2023-03-28T13:34:57.128Z,70.05
2023-03-28T13:36:31.454Z,69.33
2023-03-28T13:38:18.636Z,69.34
2023-03-28T13:39:30.692Z,68.29
2023-03-28T13:41:10.916Z,69.42
2023-03-28T13:42:46.436Z,69.32
2023-03-28T13:43:56.955Z,68.87
2023-03-28T13:45:16.988Z,68.48
2023-03-28T13:46:34.073Z,68.62
2023-03-28T13:48:06.234Z,68.75
2023-03-28T13:49:45.334Z,68.47
2023-03-28T13:50:55.332Z,68.10
2023-03-28T13:52:06.641Z,68.27
2023-03-28T13:53:11.518Z,67.62
2023-03-28T13:54:20.416Z,68.47
2023-03-28T13:55:34.730Z,68.49
2023-03-28T13:56:44.536Z,68.11
2023-03-28T13:57:53.351Z,68.33
2023-03-28T13:59:03.057Z,68.06
2023-03-28T14:00:23.637Z,68.49
2023-03-28T14:03:19.458Z,67.11
2023-03-28T14:04:57.153Z,64.72
2023-03-28T14:06:24.669Z,63.84
2023-03-28T14:07:31.564Z,64.80
2023-03-28T14:08:35.943Z,64.99
2023-03-28T14:09:40.853Z,65.33
2023-03-28T14:10:50.294Z,64.85
2023-03-28T14:12:16.611Z,64.90
2023-03-28T14:13:43.003Z,65.04
2023-03-28T14:15:06.834Z,65.36
2023-03-28T14:25:06.316Z,70.61
2023-03-28T14:35:00.635Z,78.17
2023-03-28T14:42:48.125Z,81.87
2023-03-28T14:44:18.374Z,82.68
2023-03-28T14:45:43.034Z,83.22
2023-03-28T14:49:33.817Z,83.30
2023-03-28T14:54:37.240Z,84.60
2023-03-28T15:04:44.736Z,86.98
2023-03-28T15:13:48.601Z,89.01
2023-03-28T15:17:21.263Z,87.70
2023-03-28T15:18:44.439Z,87.63
2023-03-28T15:21:48.852Z,85.81
2023-03-28T15:23:54.705Z,84.97
2023-03-28T15:30:20.485Z,82.95
2023-03-28T15:32:37.945Z,83.28
2023-03-28T15:37:21.894Z,83.84
2023-03-28T15:47:22.890Z,86.75
2023-03-28T15:48:34.616Z,86.51
2023-03-28T15:50:19.711Z,87.27
2023-03-28T15:53:59.415Z,88.07
2023-03-28T15:57:43.483Z,89.33
2023-03-28T15:59:06.243Z,89.56
2023-03-28T16:01:23.736Z,89.73
2023-03-28T16:02:52.302Z,89.64
2023-03-28T16:04:32.109Z,89.99
2023-03-28T16:08:56.729Z,90.05
2023-03-28T16:21:48.774Z,92.88
2023-03-28T16:23:56.372Z,92.91
2023-03-28T16:27:40.258Z,93.69
2023-03-28T16:37:30.390Z,95.49
2023-03-28T16:41:44.984Z,96.87
2023-03-28T16:47:46.806Z,97.91
2023-03-28T16:52:57.202Z,98.30
2023-03-28T16:55:19.216Z,99.65
2023-03-28T16:59:32.854Z,99.46
2023-03-28T17:00:51.601Z,100.00
2023-03-28T17:01:59.502Z,99.82
2023-03-28T17:03:05.707Z,100.00
2023-03-28T17:04:22.304Z,100.00
2023-03-28T17:05:33.822Z,100.00
2023-03-28T17:06:40.170Z,100.00
2023-03-28T17:08:20.989Z,100.00
2023-03-28T17:09:43.116Z,100.00
2023-03-28T17:12:51.328Z,100.00
2023-03-28T17:16:36.419Z,100.00
2023-03-28T17:19:02.324Z,100.00
2023-03-28T17:22:08.308Z,100.00
